createdAt,value
2018-09-17T00:04:32.336Z,6.80
2018-09-17T00:09:27.092Z,5.07
2018-09-17T00:14:21.630Z,5.80
2018-09-17T00:19:16.120Z,7.20
2018-09-17T00:24:10.840Z,5.93
2018-09-17T00:29:05.438Z,6.03
2018-09-17T00:33:59.914Z,6.23
2018-09-17T00:38:54.697Z,6.77
2018-09-17T00:43:49.222Z,8.10
2018-09-17T00:48:43.828Z,8.43
2018-09-17T00:53:38.377Z,10.03
2018-09-17T00:58:32.845Z,7.47
2018-09-17T01:03:27.516Z,7.47
2018-09-17T01:08:21.974Z,6.17
2018-09-17T01:13:16.586Z,7.20
2018-09-17T01:18:11.034Z,5.63
2018-09-17T01:23:05.674Z,6.10
2018-09-17T01:28:00.469Z,8.37
2018-09-17T01:32:55.007Z,5.70
2018-09-17T01:37:49.482Z,7.53
2018-09-17T01:42:44.090Z,6.00
2018-09-17T01:47:38.681Z,5.20
2018-09-17T01:52:33.173Z,6.93
2018-09-17T01:57:27.863Z,5.17
2018-09-17T02:02:22.324Z,12.13
2018-09-17T02:07:16.810Z,6.20
2018-09-17T02:12:13.501Z,5.67
2018-09-17T02:17:08.136Z,5.27
2018-09-17T02:22:02.620Z,6.67
2018-09-17T02:26:57.467Z,8.33
2018-09-17T02:31:51.942Z,5.70
2018-09-17T02:36:46.622Z,6.67
2018-09-17T02:41:41.153Z,6.17
2018-09-17T02:46:35.647Z,7.97
2018-09-17T02:51:30.123Z,7.53
2018-09-17T02:56:25.099Z,6.67
2018-09-17T03:01:19.572Z,5.77
2018-09-17T03:06:14.071Z,6.90
2018-09-17T03:11:08.708Z,12.20
2018-09-17T03:16:03.220Z,11.67
2018-09-17T03:20:57.695Z,9.73
2018-09-17T03:25:52.275Z,7.27
2018-09-17T03:30:46.798Z,10.07
2018-09-17T03:35:41.623Z,8.03
2018-09-17T03:40:36.296Z,5.97
2018-09-17T03:45:30.838Z,6.83
2018-09-17T03:50:25.306Z,6.60
2018-09-17T03:55:19.974Z,8.67
2018-09-17T04:00:14.458Z,10.80
2018-09-17T04:05:08.928Z,8.00
2018-09-17T04:10:03.517Z,7.17
2018-09-17T04:14:57.996Z,7.23
2018-09-17T04:19:52.476Z,8.27
2018-09-17T04:24:47.163Z,7.80
2018-09-17T04:29:41.632Z,8.47
2018-09-17T04:34:36.106Z,8.73
2018-09-17T04:39:30.854Z,8.97
2018-09-17T04:44:25.371Z,8.47
2018-09-17T04:49:19.847Z,6.90
2018-09-17T04:54:14.335Z,7.83
2018-09-17T04:59:08.770Z,10.27
2018-09-17T05:04:03.292Z,8.13
2018-09-17T05:08:57.774Z,10.00
2018-09-17T05:13:52.247Z,7.47
2018-09-17T05:18:46.750Z,7.07
2018-09-17T05:23:41.509Z,6.93
2018-09-17T05:28:36.008Z,8.57
2018-09-17T05:33:30.516Z,8.67
2018-09-17T05:38:24.977Z,9.03
2018-09-17T05:43:19.514Z,9.23
2018-09-17T05:48:14.096Z,8.10
2018-09-17T05:53:08.832Z,10.60
2018-09-17T05:58:03.481Z,8.17
2018-09-17T06:02:59.045Z,8.63
2018-09-17T06:07:53.739Z,7.17
2018-09-17T06:12:49.030Z,7.67
2018-09-17T06:17:43.514Z,10.00
2018-09-17T06:22:38.071Z,7.33
2018-09-17T06:27:32.825Z,8.67
2018-09-17T06:32:27.294Z,5.53
2018-09-17T06:37:21.772Z,5.60
2018-09-17T06:42:16.668Z,10.13
2018-09-17T06:47:11.289Z,8.27
2018-09-17T06:52:06.016Z,6.43
2018-09-17T06:57:00.522Z,6.63
2018-09-17T07:01:54.992Z,7.87
2018-09-17T07:06:50.039Z,4.57
2018-09-17T07:11:44.866Z,6.73
2018-09-17T07:16:39.792Z,7.67
2018-09-17T07:21:34.796Z,10.30
2018-09-17T07:26:29.707Z,5.87
2018-09-17T07:31:24.653Z,5.03
2018-09-17T07:36:19.533Z,9.87
2018-09-17T07:41:14.427Z,7.67
2018-09-17T07:46:09.374Z,5.57
2018-09-17T07:51:04.110Z,8.00
2018-09-17T07:55:59.237Z,5.77
2018-09-17T08:00:54.497Z,4.80
2018-09-17T08:05:49.702Z,8.37
2018-09-17T08:10:44.803Z,4.53
2018-09-17T08:15:39.558Z,13.23
2018-09-17T08:20:34.290Z,5.13
2018-09-17T08:25:29.097Z,8.43
2018-09-17T08:30:24.091Z,8.63
2018-09-17T08:35:18.991Z,8.30
2018-09-17T08:40:14.211Z,5.33
2018-09-17T08:45:08.972Z,8.10
2018-09-17T08:50:03.798Z,5.57
2018-09-17T08:55:10.066Z,5.07
2018-09-17T09:00:13.000Z,9.77
2018-09-17T09:05:13.073Z,9.73
2018-09-17T09:10:13.176Z,7.97
2018-09-17T09:15:13.135Z,7.73
2018-09-17T09:20:07.935Z,5.97
2018-09-17T09:25:02.909Z,3.90
2018-09-17T09:29:57.749Z,4.03
2018-09-17T09:34:53.114Z,4.37
2018-09-17T09:39:47.818Z,4.40
2018-09-17T09:44:42.748Z,5.67
2018-09-17T09:49:37.508Z,4.00
2018-09-17T09:54:32.402Z,4.27
2018-09-17T09:59:27.211Z,4.50
2018-09-17T10:04:22.984Z,3.83
2018-09-17T10:09:22.923Z,3.63
2018-09-17T10:14:22.826Z,6.10
2018-09-17T10:19:23.261Z,6.77
2018-09-17T10:24:18.146Z,5.23
2018-09-17T10:29:13.022Z,7.00
2018-09-17T10:34:07.929Z,5.13
2018-09-17T10:39:02.576Z,6.33
2018-09-17T10:43:57.143Z,3.93
2018-09-17T10:48:51.617Z,6.53
2018-09-17T10:53:46.128Z,3.87
2018-09-17T10:58:40.581Z,3.13
2018-09-17T11:03:35.238Z,6.73
2018-09-17T11:08:29.963Z,4.53
2018-09-17T11:13:24.579Z,7.23
2018-09-17T11:18:19.529Z,4.00
2018-09-17T11:23:14.116Z,3.73
2018-09-17T11:28:08.615Z,4.07
2018-09-17T11:33:03.126Z,3.73
2018-09-17T11:37:57.707Z,5.50
2018-09-17T11:42:52.595Z,5.20
2018-09-17T11:47:47.102Z,5.20
2018-09-17T11:52:41.672Z,4.07
2018-09-17T11:57:36.197Z,6.70
2018-09-17T12:02:35.653Z,2.80
2018-09-17T12:07:35.412Z,7.17
2018-09-17T12:12:29.886Z,6.00
2018-09-17T12:17:24.676Z,6.27
2018-09-17T12:22:20.097Z,2.93
2018-09-17T12:27:15.178Z,4.70
2018-09-17T12:32:10.027Z,7.80
2018-09-17T12:37:04.628Z,7.10
2018-09-17T12:41:59.271Z,2.93
2018-09-17T12:46:53.860Z,5.33
2018-09-17T12:51:48.572Z,5.03
2018-09-17T12:56:43.667Z,6.73
2018-09-17T13:01:38.261Z,4.80
2018-09-17T13:06:33.163Z,6.97
2018-09-17T13:11:27.907Z,3.70
2018-09-17T13:16:22.458Z,4.57
2018-09-17T13:21:17.450Z,4.53
2018-09-17T13:26:12.820Z,6.03
2018-09-17T13:31:07.577Z,5.87
2018-09-17T13:36:02.340Z,4.40
2018-09-17T13:40:57.146Z,4.77
2018-09-17T13:45:51.870Z,4.97
2018-09-17T13:50:46.840Z,3.07
2018-09-17T13:55:41.560Z,3.83
2018-09-17T14:00:36.329Z,3.90
2018-09-17T14:05:31.256Z,4.27
2018-09-17T14:10:26.025Z,4.17
2018-09-17T14:15:20.895Z,5.30
2018-09-17T14:20:15.831Z,3.53
2018-09-17T14:25:10.904Z,6.13
2018-09-17T14:30:05.779Z,5.60
2018-09-17T14:35:00.514Z,2.80
2018-09-17T14:39:55.874Z,8.83
2018-09-17T14:44:50.770Z,5.70
2018-09-17T14:49:45.807Z,5.03
2018-09-17T14:54:40.970Z,3.13
2018-09-17T14:59:35.970Z,8.20
2018-09-17T15:04:30.886Z,2.93
2018-09-17T15:09:25.926Z,3.37
2018-09-17T15:14:21.066Z,5.23
2018-09-17T15:19:15.817Z,2.93
2018-09-17T15:24:11.469Z,2.97
2018-09-17T15:29:06.852Z,4.47
2018-09-17T15:34:01.639Z,3.27
2018-09-17T15:38:56.547Z,7.47
2018-09-17T15:43:51.404Z,4.13
2018-09-17T15:48:46.133Z,5.20
2018-09-17T15:53:40.863Z,5.43
2018-09-17T15:58:36.157Z,4.93
2018-09-17T16:03:30.643Z,6.20
2018-09-17T16:08:25.177Z,5.33
2018-09-17T16:13:20.070Z,4.53
2018-09-17T16:18:14.604Z,6.87
2018-09-17T16:23:09.467Z,10.10
2018-09-17T16:28:03.966Z,8.23
2018-09-17T16:32:58.513Z,17.20
2018-09-17T16:37:52.976Z,6.87
2018-09-17T16:42:47.792Z,14.03
2018-09-17T16:47:42.354Z,26.63
2018-09-17T16:52:36.830Z,10.33
2018-09-17T16:57:31.311Z,8.53
2018-09-17T17:02:26.082Z,10.77
2018-09-17T17:07:20.669Z,10.13
2018-09-17T17:12:15.176Z,6.83
2018-09-17T17:17:09.711Z,10.03
2018-09-17T17:22:04.943Z,8.47
2018-09-17T17:26:59.754Z,14.73
2018-09-17T17:31:54.311Z,13.97
2018-09-17T17:36:48.794Z,8.10
2018-09-17T17:41:43.324Z,10.80
2018-09-17T17:46:38.094Z,9.70
2018-09-17T17:51:34.149Z,8.90
2018-09-17T17:56:29.400Z,19.30
2018-09-17T18:01:24.194Z,17.30
2018-09-17T18:06:19.056Z,29.97
2018-09-17T18:11:13.855Z,21.43
2018-09-17T18:16:08.585Z,14.23
2018-09-17T18:21:03.303Z,16.60
2018-09-17T18:25:58.564Z,20.57
2018-09-17T18:30:53.666Z,20.50
2018-09-17T18:35:48.214Z,18.57
2018-09-17T18:40:43.230Z,21.27
2018-09-17T18:45:38.007Z,22.03
2018-09-17T18:50:32.472Z,21.00
2018-09-17T18:55:27.135Z,25.17
2018-09-17T19:00:21.703Z,13.20
2018-09-17T19:05:16.240Z,16.43
2018-09-17T19:10:10.757Z,12.13
2018-09-17T19:15:10.880Z,8.37
2018-09-17T19:20:06.281Z,12.57
2018-09-17T19:25:01.145Z,15.13
2018-09-17T19:29:55.879Z,16.53
2018-09-17T19:34:50.703Z,16.53
2018-09-17T19:39:50.366Z,16.53
2018-09-17T19:44:50.207Z,11.90
2018-09-17T19:49:44.987Z,12.90
2018-09-17T19:54:39.582Z,10.73
2018-09-17T19:59:41.641Z,8.70
2018-09-17T20:04:44.420Z,9.60
2018-09-17T20:09:38.978Z,7.10
2018-09-17T20:14:33.770Z,8.03
2018-09-17T20:19:28.506Z,8.47
2018-09-17T20:24:23.108Z,12.87
2018-09-17T20:29:17.926Z,10.50
2018-09-17T20:34:14.243Z,7.57
2018-09-17T20:39:10.101Z,7.50
2018-09-17T20:44:04.640Z,6.60
2018-09-17T20:48:59.289Z,10.80
2018-09-17T20:53:53.906Z,4.97
2018-09-17T20:58:48.473Z,9.23
2018-09-17T21:03:42.925Z,6.40
2018-09-17T21:08:37.875Z,4.97
2018-09-17T21:13:32.590Z,11.53
2018-09-17T21:18:27.588Z,5.63
2018-09-17T21:23:22.080Z,6.43
2018-09-17T21:28:16.572Z,5.53
2018-09-17T21:33:11.061Z,7.70
2018-09-17T21:38:05.572Z,5.80
2018-09-17T21:43:01.381Z,4.20
2018-09-17T21:47:56.872Z,6.27
2018-09-17T21:52:51.532Z,3.93
2018-09-17T21:57:46.062Z,4.80
2018-09-17T22:02:40.554Z,4.10
2018-09-17T22:07:35.077Z,4.87
2018-09-17T22:12:30.086Z,7.67
2018-09-17T22:17:24.580Z,5.53
2018-09-17T22:22:19.096Z,5.57
2018-09-17T22:27:13.758Z,6.30
2018-09-17T22:32:09.287Z,5.17
2018-09-17T22:37:04.184Z,5.33
2018-09-17T22:41:59.361Z,6.40
2018-09-17T22:46:54.334Z,9.07
2018-09-17T22:51:48.904Z,5.43
2018-09-17T22:56:43.390Z,5.00
2018-09-17T23:01:38.277Z,6.10
2018-09-17T23:06:32.716Z,4.53
2018-09-17T23:11:27.210Z,7.37
2018-09-17T23:16:21.700Z,5.40
2018-09-17T23:21:16.157Z,7.03
2018-09-17T23:26:10.661Z,4.23
2018-09-17T23:31:05.201Z,7.93
2018-09-17T23:35:59.792Z,6.67
2018-09-17T23:40:54.525Z,5.67
2018-09-17T23:45:49.229Z,8.17
2018-09-17T23:50:43.723Z,7.07
2018-09-17T23:55:38.245Z,5.07
